Time;durP1;ratioP1;P1;durP2;ratioP2;P2;SDS_P1;SDS_P2;PMS_P1;PMS_P2;Temp;Humidity;BMP_temperature;BMP_pressure;BME280_temperature;BME280_humidity;BME280_pressure;Samples;Min_cycle;Max_cycle;Signal;HPM_P1;HPM_P2
2022/08/09 00:00:21;;;;;;;4.50;4.07;;;;;;;22.91;50.15;95044.81;5056487;28;20185;-72
2022/08/09 00:02:49;;;;;;;4.47;4.18;;;;;;;22.87;50.46;95041.31;5055860;28;20194;-72
2022/08/09 00:05:17;;;;;;;4.68;4.15;;;;;;;22.81;50.42;95046.66;5056709;28;20209;-72
2022/08/09 00:07:47;;;;;;;5.32;4.85;;;;;;;22.76;50.54;95041.53;5055723;28;20194;-72
2022/08/09 00:10:17;;;;;;;4.50;4.20;;;;;;;22.72;50.81;95038.00;5056345;28;20212;-72
2022/08/09 00:12:45;;;;;;;4.55;4.25;;;;;;;22.66;51.00;95048.19;5056325;28;20182;-72
2022/08/09 00:15:12;;;;;;;7.63;4.40;;;;;;;22.65;51.13;95043.75;5055559;28;20610;-72
2022/08/09 00:17:40;;;;;;;4.50;4.15;;;;;;;22.62;51.05;95047.44;5055301;28;20193;-72
2022/08/09 00:20:10;;;;;;;5.50;4.97;;;;;;;22.64;51.37;95044.19;5055725;28;20190;-72
2022/08/09 00:22:38;;;;;;;4.95;4.47;;;;;;;22.61;51.42;95045.84;5056367;28;20204;-72
2022/08/09 00:25:06;;;;;;;4.57;4.20;;;;;;;22.56;51.44;95051.97;5055966;28;20209;-72
2022/08/09 00:27:40;;;;;;;4.60;4.20;;;;;;;22.46;51.55;95052.97;5056052;28;20201;-72
2022/08/09 00:30:09;;;;;;;4.50;4.10;;;;;;;22.43;51.91;95051.81;5056218;28;20194;-72
2022/08/09 00:32:38;;;;;;;4.72;4.25;;;;;;;22.39;51.95;95048.28;5055484;28;20206;-72
2022/08/09 00:35:07;;;;;;;5.28;4.40;;;;;;;22.35;51.98;95050.38;5055518;28;20220;-72
2022/08/09 00:37:34;;;;;;;4.43;4.10;;;;;;;22.32;51.72;95054.81;5088378;28;20228;-72
2022/08/09 00:40:03;;;;;;;5.20;4.70;;;;;;;22.27;51.68;95049.72;5095438;28;20199;-72
2022/08/09 00:42:33;;;;;;;5.95;5.45;;;;;;;22.24;51.57;95058.19;5094526;28;20205;-72
2022/08/09 00:45:04;;;;;;;7.03;6.32;;;;;;;22.23;52.14;95062.25;5095287;28;20273;-72
2022/08/09 00:47:31;;;;;;;7.18;6.60;;;;;;;22.22;52.12;95061.47;5095245;28;20191;-72
2022/08/09 00:49:57;;;;;;;6.22;5.65;;;;;;;22.20;52.29;95058.25;5096469;28;20210;-72
2022/08/09 00:52:28;;;;;;;5.43;5.03;;;;;;;22.17;52.47;95061.13;5095908;28;20200;-72
2022/08/09 00:54:56;;;;;;;5.47;5.00;;;;;;;22.12;52.41;95062.41;5096017;28;20200;-72
2022/08/09 00:57:23;;;;;;;5.80;5.25;;;;;;;22.08;52.32;95058.88;5095937;28;20203;-72
2022/08/09 00:59:51;;;;;;;5.93;5.43;;;;;;;22.07;52.50;95055.25;5095831;28;20181;-73
2022/08/09 01:02:25;;;;;;;5.65;5.25;;;;;;;22.11;52.82;95074.84;5095505;28;20211;-73
2022/08/09 01:05:00;;;;;;;6.72;5.57;;;;;;;22.08;52.46;95070.88;5094918;28;20217;-72
2022/08/09 01:07:34;;;;;;;7.25;5.45;;;;;;;22.03;52.73;95073.38;5095802;28;20180;-72
2022/08/09 01:10:04;;;;;;;7.45;6.63;;;;;;;21.96;53.14;95073.50;5094672;28;20195;-72
2022/08/09 01:12:35;;;;;;;8.25;6.00;;;;;;;21.90;53.13;95073.22;5094463;28;20619;-72
2022/08/09 01:15:06;;;;;;;7.20;6.47;;;;;;;21.88;53.25;95073.63;5095873;28;20184;-72
2022/08/09 01:17:39;;;;;;;9.48;7.80;;;;;;;21.96;52.83;95077.09;5094702;28;20197;-72
2022/08/09 01:20:08;;;;;;;9.30;7.13;;;;;;;22.04;52.98;95078.59;5094727;28;20291;-72
2022/08/09 01:23:06;;;;;;;13.48;9.82;;;;;;;22.15;52.48;95072.00;5094848;28;20200;-72
2022/08/09 01:25:57;;;;;;;6.72;6.00;;;;;;;22.15;53.17;95072.81;5095560;28;20181;-72
2022/08/09 01:28:27;;;;;;;5.65;5.07;;;;;;;22.14;53.00;95062.78;5086482;28;20632;-72
2022/08/09 01:31:01;;;;;;;6.18;5.55;;;;;;;22.06;53.36;95064.91;5095482;28;20188;-72
2022/08/09 01:33:32;;;;;;;5.45;4.95;;;;;;;21.99;53.46;95056.59;5095526;28;20192;-72
2022/08/09 01:36:03;;;;;;;7.20;5.25;;;;;;;22.00;53.66;95051.75;5094265;28;20338;-72
2022/08/09 01:38:36;;;;;;;9.38;7.13;;;;;;;22.04;53.47;95056.13;5094581;28;20180;-72
2022/08/09 01:41:06;;;;;;;8.15;6.45;;;;;;;22.09;53.03;95052.03;5094565;28;20207;-72
2022/08/09 01:43:38;;;;;;;7.18;6.47;;;;;;;22.10;53.30;95047.97;5095167;28;20211;-72
2022/08/09 01:46:06;;;;;;;8.27;5.60;;;;;;;22.06;53.54;95045.25;5094503;28;20207;-72
2022/08/09 01:48:34;;;;;;;6.00;5.40;;;;;;;22.01;53.64;95036.53;5094335;28;20200;-72
2022/08/09 01:51:02;;;;;;;6.93;5.28;;;;;;;21.92;53.89;95025.81;5095254;28;20219;-72
2022/08/09 01:53:30;;;;;;;7.03;5.63;;;;;;;21.92;53.81;95023.03;5094598;28;20220;-72
2022/08/09 01:55:59;;;;;;;7.63;6.57;;;;;;;21.98;54.10;95021.31;5094039;28;20588;-72
2022/08/09 01:58:28;;;;;;;5.80;5.30;;;;;;;;;;5095340;28;20196;-72
2022/08/09 02:00:59;;;;;;;6.85;5.55;;;;;;;22.09;54.12;95027.53;5095159;28;20196;-72
2022/08/09 02:03:30;;;;;;;5.88;5.20;;;;;;;22.17;53.66;95028.22;5095094;28;20181;-72
2022/08/09 02:05:58;;;;;;;6.55;5.18;;;;;;;22.19;53.92;95028.59;5094153;28;20207;-72
2022/08/09 02:08:28;;;;;;;5.50;5.00;;;;;;;22.18;53.07;95023.41;5094200;28;20210;-72
2022/08/09 02:10:56;;;;;;;5.18;4.78;;;;;;;22.18;52.99;95015.75;5094191;28;20538;-72
2022/08/09 02:13:25;;;;;;;5.25;4.85;;;;;;;22.19;52.42;95019.38;5094290;28;20192;-73
2022/08/09 02:15:54;;;;;;;5.05;4.65;;;;;;;22.22;52.47;95013.69;5094606;28;20208;-73
2022/08/09 02:18:27;;;;;;;4.90;4.50;;;;;;;22.23;52.46;95006.84;5094079;28;20196;-71
2022/08/09 02:20:59;;;;;;;5.43;4.95;;;;;;;22.20;52.51;95009.72;5095082;28;20192;-72
2022/08/09 02:23:31;;;;;;;5.40;4.82;;;;;;;22.19;52.80;95014.56;5094084;28;20197;-72
2022/08/09 02:26:02;;;;;;;5.85;5.22;;;;;;;22.22;52.60;95012.88;5094949;28;20172;-72
2022/08/09 02:28:34;;;;;;;5.38;4.88;;;;;;;22.23;52.41;95022.91;5094164;28;20219;-71
2022/08/09 02:31:06;;;;;;;5.45;4.95;;;;;;;22.22;52.60;95026.94;5094212;28;20253;-71
2022/08/09 02:33:39;;;;;;;5.50;5.00;;;;;;;22.18;52.28;95035.41;5094492;28;20199;-71
2022/08/09 02:36:08;;;;;;;5.47;5.00;;;;;;;22.22;52.41;95044.59;5093339;28;20235;-71
2022/08/09 02:38:43;;;;;;;5.60;5.10;;;;;;;22.22;52.38;95052.22;5094666;28;20181;-72
2022/08/09 02:44:04;;;;;;;5.45;4.95;;;;;;;22.19;52.14;95047.47;5098002;28;20212;-72
2022/08/09 02:46:34;;;;;;;5.55;5.15;;;;;;;22.22;52.17;95053.03;5097325;28;20211;-72
2022/08/09 02:49:07;;;;;;;5.63;5.13;;;;;;;22.21;51.92;95048.59;5098564;28;20212;-72
2022/08/09 02:51:36;;;;;;;5.18;4.78;;;;;;;22.19;51.87;95053.88;5098103;28;20191;-72
2022/08/09 02:54:05;;;;;;;5.85;5.35;;;;;;;22.18;51.81;95051.47;5098616;28;20191;-72
2022/08/09 02:56:33;;;;;;;5.72;5.15;;;;;;;22.15;52.05;95049.53;5098155;28;20269;-72
2022/08/09 02:59:03;;;;;;;5.38;4.97;;;;;;;22.19;52.17;95044.66;5098022;28;20192;-72
2022/08/09 03:01:32;;;;;;;5.78;5.30;;;;;;;22.21;52.06;95043.00;5096999;28;20701;-72
2022/08/09 03:04:01;;;;;;;5.40;5.00;;;;;;;22.22;51.74;95047.41;5098095;28;20219;-70
2022/08/09 03:06:31;;;;;;;5.07;4.60;;;;;;;22.24;51.88;95056.19;5096889;28;20197;-71
2022/08/09 03:09:02;;;;;;;6.68;4.97;;;;;;;22.26;52.08;95056.56;5096919;28;20204;-71
2022/08/09 03:11:31;;;;;;;5.75;5.00;;;;;;;22.25;52.26;95060.56;5097014;28;20199;-71
2022/08/09 03:14:01;;;;;;;6.68;5.20;;;;;;;22.24;52.52;95050.56;5097114;28;20204;-71
2022/08/09 03:16:31;;;;;;;7.28;6.45;;;;;;;22.18;53.50;95057.09;5097771;28;20196;-71
2022/08/09 03:19:00;;;;;;;6.18;5.57;;;;;;;22.13;53.89;95049.94;5097549;28;20200;-71
2022/08/09 03:21:30;;;;;;;6.65;5.35;;;;;;;22.07;53.91;95055.25;5097017;28;20287;-71
2022/08/09 03:23:59;;;;;;;6.22;5.18;;;;;;;22.04;54.05;95050.50;5097801;28;20188;-70
2022/08/09 03:26:28;;;;;;;5.43;5.03;;;;;;;22.04;54.13;95058.94;5097560;28;20181;-71
2022/08/09 03:28:57;;;;;;;5.63;5.13;;;;;;;22.02;54.08;95055.75;5097427;28;20237;-71
2022/08/09 03:31:27;;;;;;;5.65;5.15;;;;;;;21.98;54.50;95060.63;5097681;28;20224;-71
2022/08/09 03:34:00;;;;;;;5.65;5.15;;;;;;;21.97;54.34;95061.03;5096363;28;20192;-71
2022/08/09 03:36:28;;;;;;;5.32;4.93;;;;;;;21.94;54.54;95059.91;5096389;28;20243;-71
2022/08/09 03:38:57;;;;;;;5.47;4.97;;;;;;;21.92;54.67;95053.91;5096606;28;20211;-71
2022/08/09 03:41:25;;;;;;;5.15;4.65;;;;;;;21.91;53.94;95060.75;5097555;28;20188;-71
2022/08/09 03:43:54;;;;;;;6.30;5.45;;;;;;;21.92;53.90;95061.53;5097340;28;20200;-70
2022/08/09 03:46:22;;;;;;;5.95;5.20;;;;;;;21.90;54.01;95064.78;5096956;28;20517;-71
2022/08/09 03:48:59;;;;;;;5.72;5.20;;;;;;;21.88;53.88;95061.59;5096415;28;20193;-71
2022/08/09 03:51:29;;;;;;;5.30;4.80;;;;;;;21.83;54.02;95064.91;5096246;28;20204;-71
2022/08/09 03:53:59;;;;;;;5.70;5.20;;;;;;;21.81;53.97;95070.13;5096297;28;20193;-70
2022/08/09 03:56:28;;;;;;;6.03;5.35;;;;;;;21.78;54.09;95070.97;5096454;28;20192;-70
2022/08/09 03:58:54;;;;;;;5.32;4.93;;;;;;;21.73;54.33;95069.47;5096371;28;20197;-70
2022/08/09 04:01:23;;;;;;;5.13;4.72;;;;;;;21.67;54.61;95073.97;5096404;28;20211;-70
2022/08/09 04:03:53;;;;;;;5.70;5.13;;;;;;;21.60;55.31;95071.25;5096067;28;20215;-69
2022/08/09 04:06:19;;;;;;;7.90;6.10;;;;;;;21.51;54.95;95074.63;5096210;28;20216;-70
2022/08/09 04:08:49;;;;;;;6.45;5.60;;;;;;;21.52;55.01;95070.56;5095988;28;20209;-70
2022/08/09 04:11:18;;;;;;;6.10;5.40;;;;;;;21.54;55.37;95072.97;5095543;28;20192;-70
2022/08/09 04:13:47;;;;;;;6.00;5.50;;;;;;;21.55;55.38;95071.75;5096804;28;20181;-70
2022/08/09 04:16:13;;;;;;;6.07;5.57;;;;;;;21.58;55.58;95073.72;5096392;28;20207;-70
2022/08/09 04:18:42;;;;;;;7.13;5.50;;;;;;;21.57;55.36;95075.72;5095462;28;20196;-70
2022/08/09 04:21:09;;;;;;;8.82;5.70;;;;;;;21.60;56.04;95074.06;5095915;28;20199;-70
2022/08/09 04:23:37;;;;;;;9.93;6.20;;;;;;;21.62;56.03;95080.84;5095346;28;20581;-70
2022/08/09 04:26:04;;;;;;;6.50;5.88;;;;;;;21.60;56.33;95077.66;5096026;28;20216;-70
2022/08/09 04:28:33;;;;;;;6.90;5.57;;;;;;;21.58;56.46;95073.72;5095962;28;20192;-70
2022/08/09 04:31:02;;;;;;;8.38;5.60;;;;;;;21.55;56.92;95069.75;5095781;28;20196;-70
2022/08/09 04:33:29;;;;;;;6.07;5.55;;;;;;;21.57;57.13;95074.94;5095387;28;20200;-70
2022/08/09 04:35:55;;;;;;;7.80;5.75;;;;;;;21.57;57.48;95080.56;5094914;28;20200;-70
2022/08/09 04:38:24;;;;;;;8.55;5.43;;;;;;;21.59;57.62;95083.72;5096390;28;20184;-70
2022/08/09 04:40:52;;;;;;;6.53;5.57;;;;;;;21.59;57.52;95080.91;5095638;28;20200;-70
2022/08/09 04:43:20;;;;;;;8.60;6.00;;;;;;;21.59;57.40;95086.53;5095193;28;20203;-70
2022/08/09 04:45:48;;;;;;;8.00;6.45;;;;;;;21.63;57.49;95081.66;5094838;28;20220;-70
2022/08/09 04:48:16;;;;;;;6.45;5.85;;;;;;;21.64;57.72;95091.63;5095399;28;20200;-69
2022/08/09 04:50:44;;;;;;;7.32;5.63;;;;;;;21.63;58.01;95093.66;5094960;28;20215;-69
2022/08/09 04:53:14;;;;;;;7.90;6.25;;;;;;;21.62;57.79;95099.72;5095266;28;20201;-69
2022/08/09 04:55:42;;;;;;;7.95;6.00;;;;;;;21.62;57.69;95094.88;5095193;28;20634;-69
2022/08/09 04:58:10;;;;;;;8.38;5.40;;;;;;;21.69;57.15;95096.00;5095268;28;20204;-69
2022/08/09 05:00:38;;;;;;;6.28;5.65;;;;;;;21.75;56.17;95095.09;5095008;28;20208;-69
2022/08/09 05:03:07;;;;;;;6.07;5.50;;;;;;;22.23;54.90;95101.56;5094400;28;20218;-70
2022/08/09 05:05:35;;;;;;;6.07;5.47;;;;;;;22.29;54.42;95103.44;5094643;28;20241;-70
2022/08/09 05:08:02;;;;;;;6.53;5.40;;;;;;;22.16;54.73;95107.31;5094714;28;20207;-70
2022/08/09 05:10:29;;;;;;;6.20;5.70;;;;;;;22.09;54.92;95108.19;5095251;28;20269;-70
2022/08/09 05:12:57;;;;;;;5.75;5.25;;;;;;;22.05;54.76;95104.66;5094938;28;20204;-70
2022/08/09 05:15:28;;;;;;;5.68;5.10;;;;;;;22.05;55.04;95101.84;5094824;28;20193;-70
2022/08/09 05:17:54;;;;;;;6.25;5.65;;;;;;;22.08;55.35;95109.41;5094403;28;20302;-70
2022/08/09 05:20:25;;;;;;;6.50;5.88;;;;;;;22.07;55.74;95102.97;5094991;28;20595;-70
2022/08/09 05:22:53;;;;;;;5.95;5.38;;;;;;;22.05;55.76;95107.47;5094382;28;20221;-70
2022/08/09 05:25:22;;;;;;;6.50;5.90;;;;;;;22.09;55.79;95111.00;5094635;28;20212;-70
2022/08/09 05:27:50;;;;;;;8.43;5.90;;;;;;;22.16;55.46;95112.94;5094311;28;20231;-70
2022/08/09 05:30:18;;;;;;;6.78;6.00;;;;;;;22.22;55.22;95114.00;5094315;28;20207;-70
2022/08/09 05:32:46;;;;;;;7.03;6.30;;;;;;;22.24;55.54;95115.19;5095507;28;20184;-70
2022/08/09 05:35:13;;;;;;;6.53;5.93;;;;;;;22.25;55.32;95113.94;5095521;28;20254;-70
2022/08/09 05:37:42;;;;;;;9.40;6.65;;;;;;;22.28;54.96;95120.72;5095425;28;20244;-70
2022/08/09 05:40:12;;;;;;;5.90;5.50;;;;;;;22.32;55.01;95119.44;5094610;28;20192;-70
2022/08/09 05:42:41;;;;;;;6.47;5.88;;;;;;;22.38;54.84;95107.72;5095810;28;20237;-70
2022/08/09 05:45:10;;;;;;;6.07;5.55;;;;;;;22.43;54.25;95112.84;5095015;28;20200;-70
2022/08/09 05:47:37;;;;;;;6.45;5.75;;;;;;;22.49;54.22;95116.75;5094402;28;20227;-70
2022/08/09 05:50:06;;;;;;;5.40;4.97;;;;;;;22.56;53.93;95120.22;5094370;28;20207;-70
2022/08/09 05:52:36;;;;;;;6.28;5.38;;;;;;;22.59;53.88;95112.97;5094957;28;20207;-70
2022/08/09 05:55:05;;;;;;;7.38;6.00;;;;;;;22.63;53.75;95121.34;5094951;28;20203;-70
2022/08/09 05:57:32;;;;;;;6.35;5.75;;;;;;;22.65;53.62;95121.69;5093941;28;20196;-70
2022/08/09 05:59:58;;;;;;;6.43;5.82;;;;;;;22.66;53.44;95107.22;5094446;28;20606;-70
2022/08/09 06:02:25;;;;;;;8.85;7.07;;;;;;;22.68;53.33;95118.81;5094250;28;20200;-70
2022/08/09 06:04:53;;;;;;;7.15;6.53;;;;;;;22.72;53.30;95110.28;5093879;28;20192;-70
2022/08/09 06:07:20;;;;;;;7.50;6.50;;;;;;;22.72;53.11;95111.09;5093993;28;20195;-70
2022/08/09 06:09:47;;;;;;;6.20;5.70;;;;;;;22.75;53.09;95113.03;5093879;28;20204;-70
2022/08/09 06:12:21;;;;;;;6.38;5.88;;;;;;;22.81;52.83;95113.34;5094739;28;20211;-70
2022/08/09 06:14:49;;;;;;;6.28;5.78;;;;;;;22.83;52.74;95114.47;5097280;28;20184;-70
2022/08/09 06:17:16;;;;;;;7.95;5.88;;;;;;;22.87;52.71;95110.81;5097972;28;20208;-70
2022/08/09 06:19:43;;;;;;;5.68;5.28;;;;;;;22.90;52.67;95112.75;5097759;28;20204;-70
2022/08/09 06:22:12;;;;;;;6.88;6.18;;;;;;;22.90;53.14;95107.13;5099029;28;20215;-70
2022/08/09 06:24:40;;;;;;;6.10;5.60;;;;;;;22.91;52.58;95103.88;5098148;28;20199;-70
2022/08/09 06:27:10;;;;;;;7.45;5.88;;;;;;;22.98;52.69;95115.03;5098191;28;20209;-70
2022/08/09 06:29:44;;;;;;;5.53;5.03;;;;;;;23.09;52.39;95116.81;5097606;28;20199;-70
2022/08/09 06:32:14;;;;;;;6.95;5.78;;;;;;;23.16;52.22;95108.25;5097646;28;20207;-70
2022/08/09 06:34:42;;;;;;;6.95;6.25;;;;;;;23.16;52.89;95109.03;5098553;28;20191;-70
2022/08/09 06:37:10;;;;;;;6.35;5.68;;;;;;;23.14;52.97;95110.72;5097309;28;20232;-70
2022/08/09 06:39:38;;;;;;;6.15;5.68;;;;;;;23.15;52.77;95103.84;5097655;28;20229;-70
2022/08/09 06:42:06;;;;;;;6.10;5.60;;;;;;;23.21;51.62;95105.72;5098270;28;20200;-70
2022/08/09 06:44:33;;;;;;;6.47;4.93;;;;;;;23.31;51.50;95109.53;5098285;28;20533;-70
2022/08/09 06:47:01;;;;;;;5.28;4.80;;;;;;;23.46;51.00;95105.19;5098634;28;20215;-70
2022/08/09 06:49:28;;;;;;;5.95;5.28;;;;;;;23.53;50.90;95104.25;5097524;28;20196;-70
2022/08/09 06:51:57;;;;;;;6.07;5.47;;;;;;;23.53;50.61;95105.03;5097462;28;20196;-70
2022/08/09 06:54:24;;;;;;;5.43;4.93;;;;;;;23.58;50.42;95106.53;5098368;28;20196;-70
2022/08/09 06:56:52;;;;;;;5.30;4.80;;;;;;;23.68;50.00;95101.91;5098056;28;20600;-70
2022/08/09 06:59:21;;;;;;;5.18;4.70;;;;;;;23.73;49.95;95105.00;5097014;28;20196;-70
2022/08/09 07:01:49;;;;;;;5.80;5.30;;;;;;;23.75;49.92;95098.94;5097001;28;20223;-70
2022/08/09 07:04:20;;;;;;;8.15;4.60;;;;;;;23.81;49.73;95099.97;5098260;28;20184;-70
2022/08/09 07:06:49;;;;;;;5.00;4.60;;;;;;;23.87;49.43;95094.63;5098047;28;20205;-70
2022/08/09 07:09:17;;;;;;;5.07;4.68;;;;;;;23.91;49.38;95098.16;5097333;28;20521;-70
2022/08/09 07:11:45;;;;;;;11.18;4.97;;;;;;;23.97;49.06;95093.59;5097998;28;20199;-70
2022/08/09 07:14:16;;;;;;;5.38;4.93;;;;;;;24.03;49.03;95100.25;5098249;28;20212;-70
2022/08/09 07:16:43;;;;;;;5.57;5.00;;;;;;;24.07;48.80;95105.81;5097110;28;20196;-70
2022/08/09 07:19:12;;;;;;;5.75;5.25;;;;;;;24.09;48.57;95094.91;5097863;28;20193;-71
2022/08/09 07:21:44;;;;;;;5.45;4.95;;;;;;;24.10;48.09;95091.63;5096832;28;20527;-70
2022/08/09 07:24:11;;;;;;;4.85;4.45;;;;;;;24.10;48.44;95088.81;5097475;28;20192;-70
2022/08/09 07:26:39;;;;;;;5.30;4.85;;;;;;;24.18;48.03;95090.25;5097067;28;20208;-70
2022/08/09 07:29:07;;;;;;;5.15;4.70;;;;;;;24.24;47.78;95088.47;5097034;28;20204;-70
2022/08/09 07:31:37;;;;;;;5.38;4.88;;;;;;;24.29;47.74;95089.94;5096841;28;20200;-70
2022/08/09 07:34:04;;;;;;;5.95;4.22;;;;;;;24.29;47.86;95097.59;5096960;28;20197;-70
2022/08/09 07:36:31;;;;;;;5.32;4.82;;;;;;;24.32;47.65;95096.72;5097222;28;20239;-70
2022/08/09 07:38:59;;;;;;;5.43;4.70;;;;;;;24.39;47.71;95093.72;5097613;28;20208;-70
2022/08/09 07:41:27;;;;;;;5.20;4.70;;;;;;;24.45;47.25;95094.81;5096677;28;20526;-70
2022/08/09 07:43:56;;;;;;;6.95;5.32;;;;;;;24.52;47.05;95100.25;5097367;28;20208;-70
2022/08/09 07:46:23;;;;;;;6.03;4.78;;;;;;;24.54;46.99;95094.97;5097446;28;20247;-70
2022/08/09 07:48:52;;;;;;;5.43;5.03;;;;;;;24.55;46.75;95096.56;5097499;28;20184;-70
2022/08/09 07:51:20;;;;;;;4.78;4.38;;;;;;;24.56;46.50;95092.50;5097310;28;20542;-70
2022/08/09 07:53:50;;;;;;;5.28;4.78;;;;;;;24.63;46.64;95092.31;5096911;28;20180;-70
2022/08/09 07:56:24;;;;;;;4.82;4.40;;;;;;;24.71;46.40;95095.72;5096943;28;20199;-70
2022/08/09 07:58:52;;;;;;;5.03;4.70;;;;;;;24.73;46.31;95094.06;5096962;28;20184;-70
2022/08/09 08:01:20;;;;;;;5.68;4.68;;;;;;;24.76;46.44;95091.56;5096275;28;20219;-70
2022/08/09 08:03:47;;;;;;;5.35;4.57;;;;;;;24.81;46.21;95091.03;5096650;28;20215;-70
2022/08/09 08:06:15;;;;;;;5.25;4.85;;;;;;;24.86;45.90;95094.09;5095896;28;20381;-70
2022/08/09 08:08:43;;;;;;;5.47;4.40;;;;;;;24.89;45.68;95087.56;5096704;28;20192;-70
2022/08/09 08:11:11;;;;;;;4.90;4.50;;;;;;;24.97;45.42;95086.13;5095997;28;20200;-70
2022/08/09 08:13:40;;;;;;;5.32;4.82;;;;;;;25.08;45.45;95085.81;5095949;28;20200;-70
2022/08/09 08:16:08;;;;;;;5.50;5.00;;;;;;;25.09;45.01;95086.59;5095905;28;20246;-70
2022/08/09 08:18:39;;;;;;;5.25;4.85;;;;;;;25.13;45.04;95082.47;5095779;28;20204;-70
2022/08/09 08:21:07;;;;;;;5.60;4.20;;;;;;;25.29;44.42;95072.34;5096521;28;20241;-70
2022/08/09 08:23:35;;;;;;;5.40;4.43;;;;;;;25.44;43.75;95070.66;5095673;28;20531;-70
2022/08/09 08:26:02;;;;;;;4.85;4.35;;;;;;;25.48;43.98;95074.16;5096831;28;20213;-70
2022/08/09 08:28:30;;;;;;;8.80;4.40;;;;;;;25.60;42.57;95081.06;5096539;28;20188;-70
2022/08/09 08:30:59;;;;;;;5.15;4.38;;;;;;;25.62;42.77;95070.13;5095703;28;20196;-70
2022/08/09 08:33:27;;;;;;;5.05;4.55;;;;;;;25.69;43.40;95070.69;5095724;28;20203;-70
2022/08/09 08:35:55;;;;;;;4.90;4.30;;;;;;;25.82;42.70;95073.56;5095260;28;20200;-70
2022/08/09 08:38:22;;;;;;;6.85;4.70;;;;;;;25.93;41.72;95065.53;5094796;28;20200;-70
2022/08/09 08:40:51;;;;;;;4.78;4.38;;;;;;;25.91;42.40;95067.22;5096444;28;20226;-70
2022/08/09 08:43:18;;;;;;;5.68;4.32;;;;;;;26.08;39.99;95070.69;5095301;28;20246;-70
2022/08/09 08:45:50;;;;;;;4.15;3.85;;;;;;;26.10;40.53;95066.16;5095246;28;20635;-70
2022/08/09 08:48:23;;;;;;;4.50;4.10;;;;;;;26.15;40.02;95053.50;5095879;28;20195;-70
2022/08/09 08:50:52;;;;;;;4.10;3.80;;;;;;;26.27;39.42;95049.84;5095566;28;20200;-70
2022/08/09 08:53:21;;;;;;;4.80;4.00;;;;;;;26.37;38.87;95045.88;5096114;28;20184;-70
2022/08/09 08:55:47;;;;;;;4.65;4.05;;;;;;;26.41;38.90;95043.72;5095110;28;20192;-70
2022/08/09 08:58:16;;;;;;;4.03;3.72;;;;;;;26.51;38.46;95047.44;5095040;28;20223;-70
2022/08/09 09:00:44;;;;;;;4.07;3.67;;;;;;;26.64;37.94;95039.69;5096157;28;20185;-70
2022/08/09 09:03:15;;;;;;;4.50;3.50;;;;;;;26.72;37.86;95037.38;5094759;28;20192;-70
2022/08/09 09:05:45;;;;;;;4.25;3.90;;;;;;;26.86;36.37;95028.38;5094862;28;20203;-70
2022/08/09 09:08:14;;;;;;;3.83;3.53;;;;;;;26.98;36.30;95032.41;5095874;28;20200;-70
2022/08/09 09:10:46;;;;;;;4.80;3.78;;;;;;;27.08;36.80;95030.41;5094939;28;20208;-70
2022/08/09 09:13:15;;;;;;;4.90;3.85;;;;;;;27.17;36.41;95024.84;5094647;28;20242;-70
2022/08/09 09:15:43;;;;;;;4.10;3.70;;;;;;;27.20;37.10;95020.28;5094887;28;20200;-70
2022/08/09 09:18:14;;;;;;;3.17;2.35;;;;;;;27.18;30.44;95025.63;5094700;28;20208;-70
2022/08/09 09:20:43;;;;;;;3.65;3.10;;;;;;;27.23;33.00;95025.81;5095123;28;20197;-70
2022/08/09 09:23:13;;;;;;;3.80;2.40;;;;;;;27.34;29.66;95026.22;5095308;28;20176;-70
2022/08/09 09:25:42;;;;;;;2.08;1.90;;;;;;;27.43;25.74;95019.81;5094640;28;20196;-70
2022/08/09 09:28:13;;;;;;;3.33;2.40;;;;;;;27.57;27.38;95016.41;5094469;28;20224;-70
2022/08/09 09:30:53;;;;;;;3.53;2.50;;;;;;;27.77;28.57;95013.19;5094432;28;20200;-70
2022/08/09 09:33:20;;;;;;;2.72;2.53;;;;;;;27.84;28.71;95006.44;5094211;28;20654;-70
2022/08/09 09:35:54;;;;;;;2.60;2.45;;;;;;;27.72;30.21;95005.28;5094002;28;20210;-70
2022/08/09 09:38:23;;;;;;;3.83;2.90;;;;;;;27.72;29.95;95010.94;5094727;28;20204;-70
2022/08/09 09:40:52;;;;;;;3.55;2.92;;;;;;;27.64;29.59;95012.50;5094396;28;20199;-70
2022/08/09 09:43:20;;;;;;;2.90;2.70;;;;;;;27.33;31.65;95010.47;5094644;28;20211;-70
2022/08/09 09:45:56;;;;;;;3.38;3.13;;;;;;;27.38;29.89;95005.44;5095339;28;20188;-70
2022/08/09 09:48:24;;;;;;;3.17;2.58;;;;;;;27.43;31.21;95002.81;5090668;28;20204;-70
2022/08/09 09:50:54;;;;;;;4.53;3.17;;;;;;;27.46;32.60;94998.28;5095438;28;20203;-69
2022/08/09 09:53:24;;;;;;;3.20;2.83;;;;;;;27.52;32.72;94993.56;5095394;28;20185;-68
2022/08/09 09:55:53;;;;;;;3.05;2.85;;;;;;;27.57;31.08;94985.25;5094585;28;20203;-69
2022/08/09 09:58:22;;;;;;;4.55;2.95;;;;;;;27.66;28.05;94989.38;5095384;28;20185;-68
2022/08/09 10:00:55;;;;;;;3.97;3.00;;;;;;;27.64;29.92;94989.06;5095045;28;20615;-69
2022/08/09 10:03:41;;;;;;;4.05;3.15;;;;;;;27.69;28.54;94991.28;5094462;28;20204;-69
2022/08/09 10:06:08;;;;;;;4.38;2.80;;;;;;;27.80;29.09;94991.66;5095298;28;20222;-69
2022/08/09 10:08:40;;;;;;;4.15;3.00;;;;;;;27.94;28.47;94990.28;5095392;28;20192;-69
2022/08/09 10:11:20;;;;;;;4.60;2.67;;;;;;;28.10;27.85;94998.47;5095284;28;20187;-69
2022/08/09 10:13:47;;;;;;;3.10;2.80;;;;;;;28.06;28.04;94992.19;5094124;28;20686;-70
2022/08/09 10:16:16;;;;;;;3.25;2.95;;;;;;;28.01;28.50;94993.59;5095189;28;20189;-70
2022/08/09 10:18:54;;;;;;;2.80;2.60;;;;;;;27.79;28.09;94998.56;5094946;28;20612;-70
2022/08/09 10:21:24;;;;;;;11.13;9.52;;;;;;;27.67;28.35;94996.59;5094952;28;20184;-70
2022/08/09 10:23:55;;;;;;;13.73;12.57;;;;;;;27.90;27.43;94983.97;5094443;28;20235;-70
2022/08/09 10:26:24;;;;;;;3.97;2.30;;;;;;;28.14;27.84;94984.16;5094502;28;20239;-70
2022/08/09 10:28:52;;;;;;;3.45;2.65;;;;;;;28.10;28.38;94989.19;5095393;28;20330;-70
2022/08/09 10:31:21;;;;;;;2.28;2.17;;;;;;;28.24;28.10;94980.88;5094381;28;20227;-70
2022/08/09 10:33:50;;;;;;;4.97;2.40;;;;;;;28.42;27.36;94985.78;5094776;28;20246;-70
2022/08/09 10:36:19;;;;;;;2.92;2.47;;;;;;;28.62;27.14;94982.50;5094932;28;20243;-70
2022/08/09 10:38:47;;;;;;;3.08;2.35;;;;;;;28.70;26.41;94985.81;5095289;28;20205;-70
2022/08/09 10:41:17;;;;;;;2.85;2.40;;;;;;;28.67;27.45;94973.34;5094383;28;20208;-69
2022/08/09 10:43:46;;;;;;;4.53;3.58;;;;;;;28.55;27.56;94980.75;5094102;28;20300;-68
2022/08/09 10:46:29;;;;;;;2.45;2.35;;;;;;;28.37;28.62;94983.56;5094296;28;20211;-68
2022/08/09 10:49:06;;;;;;;3.88;2.25;;;;;;;28.14;28.80;94981.31;5095145;28;20203;-69
2022/08/09 10:51:42;;;;;;;2.95;2.28;;;;;;;28.17;26.27;94984.00;5094087;28;20188;-70
2022/08/09 10:54:11;;;;;;;4.05;2.42;;;;;;;28.21;27.81;94978.19;5094421;28;20208;-70
2022/08/09 10:56:42;;;;;;;23.50;21.05;;;;;;;28.11;26.87;94982.28;5093863;28;20201;-70
2022/08/09 10:59:30;;;;;;;46.60;41.83;;;;;;;28.11;28.28;94977.41;5093698;28;20196;-70
2022/08/09 11:01:58;;;;;;;13.45;12.15;;;;;;;28.32;26.41;94972.84;5090012;28;20204;-70
2022/08/09 11:04:28;;;;;;;9.48;8.57;;;;;;;28.68;26.64;94966.41;5098635;28;20203;-70
2022/08/09 11:07:29;;;;;;;34.72;31.40;;;;;;;28.82;26.51;94964.19;5097733;28;20228;-70
2022/08/09 11:09:58;;;;;;;15.35;13.90;;;;;;;28.71;24.32;94979.63;5091048;28;20221;-70
2022/08/09 11:12:28;;;;;;;7.00;6.38;;;;;;;28.47;24.56;94975.84;5097457;28;20189;-70
2022/08/09 11:14:57;;;;;;;6.13;5.55;;;;;;;28.32;25.13;94978.50;5097644;28;20192;-70
2022/08/09 11:17:44;;;;;;;4.60;4.20;;;;;;;28.11;25.64;94985.13;5097318;28;20208;-70
2022/08/09 11:20:11;;;;;;;4.03;3.67;;;;;;;27.99;26.01;94979.09;5096731;28;20257;-70
2022/08/09 11:23:05;;;;;;;3.10;2.90;;;;;;;27.95;26.67;94972.78;5097609;28;20531;-70
2022/08/09 11:25:48;;;;;;;4.20;2.95;;;;;;;28.17;27.27;94961.31;5091881;28;20196;-70
2022/08/09 11:28:43;;;;;;;4.18;2.80;;;;;;;28.39;27.52;94968.94;5098082;28;20311;-69
2022/08/09 11:31:46;;;;;;;2.80;2.60;;;;;;;28.65;27.36;94961.69;5050955;28;20208;-68
2022/08/09 11:34:37;;;;;;;3.75;2.67;;;;;;;28.38;27.98;94958.84;5097891;28;20185;-69
2022/08/09 11:37:04;;;;;;;3.25;2.95;;;;;;;28.21;27.45;94964.00;5096890;28;20326;-70
2022/08/09 11:39:31;;;;;;;2.70;2.40;;;;;;;28.03;27.60;94964.75;5097744;28;20196;-70
2022/08/09 11:42:08;;;;;;;3.25;3.00;;;;;;;27.92;26.91;94956.72;5097973;28;20215;-69
2022/08/09 11:44:47;;;;;;;3.72;3.05;;;;;;;27.93;27.49;94955.47;5097074;28;20200;-69
2022/08/09 11:47:15;;;;;;;2.78;2.53;;;;;;;28.14;28.16;94953.75;5096473;28;20212;-69
2022/08/09 11:50:00;;;;;;;3.03;2.78;;;;;;;28.15;27.81;94946.84;5096264;28;20548;-69